createdAt,value
2022-11-05T00:01:45.119Z,10.94
2022-11-05T00:04:31.167Z,10.99
2022-11-05T00:07:18.414Z,10.99
2022-11-05T00:09:45.762Z,10.94
2022-11-05T00:12:31.554Z,10.94
2022-11-05T00:15:16.610Z,11.01
2022-11-05T00:17:43.381Z,10.90
2022-11-05T00:20:10.958Z,10.85
2022-11-05T00:22:56.134Z,10.81
2022-11-05T00:25:22.508Z,10.73
2022-11-05T00:27:51.240Z,10.68
2022-11-05T00:30:22.062Z,10.62
2022-11-05T00:32:49.163Z,10.64
2022-11-05T00:35:16.218Z,10.59
2022-11-05T00:37:48.710Z,10.54
2022-11-05T00:40:16.466Z,10.53
2022-11-05T00:43:02.117Z,10.49
2022-11-05T00:45:29.346Z,10.34
2022-11-05T00:48:14.471Z,10.29
2022-11-05T00:50:41.207Z,10.26
2022-11-05T00:53:08.227Z,10.31
2022-11-05T00:55:39.131Z,10.21
2022-11-05T00:58:09.818Z,10.18
2022-11-05T01:00:37.324Z,10.14
2022-11-05T01:03:05.986Z,10.13
2022-11-05T01:05:32.812Z,10.11
2022-11-05T01:07:59.523Z,10.13
2022-11-05T01:10:26.158Z,10.15
2022-11-05T01:12:53.212Z,10.14
2022-11-05T01:15:20.134Z,10.06
2022-11-05T01:17:46.478Z,10.03
2022-11-05T01:20:12.860Z,10.09
2022-11-05T01:22:39.303Z,10.19
2022-11-05T01:25:07.353Z,10.11
2022-11-05T01:27:35.139Z,10.07
2022-11-05T01:30:01.445Z,9.95
2022-11-05T01:32:27.815Z,9.94
2022-11-05T01:34:54.191Z,9.73
2022-11-05T01:37:20.435Z,9.75
2022-11-05T01:39:46.820Z,9.73
2022-11-05T01:42:20.854Z,9.64
2022-11-05T01:44:50.193Z,9.64
2022-11-05T01:47:23.219Z,9.62
2022-11-05T01:49:50.284Z,9.61
2022-11-05T01:52:16.763Z,9.71
2022-11-05T01:54:43.326Z,9.58
2022-11-05T01:57:10.044Z,9.53
2022-11-05T01:59:39.744Z,9.46
2022-11-05T02:02:07.594Z,9.51
2022-11-05T02:04:35.978Z,9.53
2022-11-05T02:07:04.304Z,9.61
2022-11-05T02:09:36.538Z,9.67
2022-11-05T02:12:03.323Z,9.70
2022-11-05T02:14:29.710Z,9.28
2022-11-05T02:17:08.663Z,9.47
2022-11-05T02:19:53.323Z,9.57
2022-11-05T02:22:38.263Z,9.54
2022-11-05T02:25:11.327Z,9.60
2022-11-05T02:27:49.158Z,9.60
2022-11-05T02:30:23.922Z,9.61
2022-11-05T02:32:56.459Z,9.61
2022-11-05T02:35:22.736Z,9.55
2022-11-05T02:37:54.397Z,9.54
2022-11-05T02:40:28.427Z,9.58
2022-11-05T02:43:01.323Z,9.60
2022-11-05T02:45:46.563Z,9.64
2022-11-05T02:48:22.163Z,9.69
2022-11-05T02:51:07.355Z,9.71
2022-11-05T02:53:38.048Z,9.74
2022-11-05T02:56:29.085Z,9.72
2022-11-05T02:58:55.478Z,9.71
2022-11-05T03:01:21.957Z,9.75
2022-11-05T03:03:53.539Z,9.80
2022-11-05T03:06:39.253Z,9.84
2022-11-05T03:09:24.099Z,9.83
2022-11-05T03:11:56.484Z,9.72
2022-11-05T03:14:22.798Z,9.77
2022-11-05T03:16:59.980Z,9.69
2022-11-05T03:19:38.680Z,9.76
2022-11-05T03:22:07.891Z,9.82
2022-11-05T03:24:35.538Z,9.87
2022-11-05T03:27:07.920Z,9.84
2022-11-05T03:29:38.240Z,9.85
2022-11-05T03:32:05.566Z,9.88
2022-11-05T03:34:35.003Z,9.90
2022-11-05T03:37:03.449Z,9.95
2022-11-05T03:39:37.108Z,9.98
2022-11-05T03:42:05.511Z,9.97
2022-11-05T03:44:34.249Z,9.95
2022-11-05T03:47:04.107Z,9.85
2022-11-05T03:49:33.411Z,9.71
2022-11-05T03:51:59.959Z,9.73
2022-11-05T03:54:26.579Z,9.76
2022-11-05T03:57:11.604Z,9.76
2022-11-05T03:59:43.172Z,9.76
2022-11-05T04:02:10.637Z,9.70
2022-11-05T04:04:37.117Z,9.71
2022-11-05T04:07:22.219Z,9.67
2022-11-05T04:10:07.089Z,9.66
2022-11-05T04:12:52.467Z,9.68
2022-11-05T04:15:19.047Z,9.65
2022-11-05T04:17:45.418Z,9.53
2022-11-05T04:20:30.655Z,9.45
2022-11-05T04:23:20.031Z,9.40
2022-11-05T04:25:46.388Z,9.32
2022-11-05T04:28:13.295Z,9.32
2022-11-05T04:30:39.688Z,9.28
2022-11-05T04:33:06.068Z,9.26
2022-11-05T04:35:38.533Z,9.30
2022-11-05T04:38:05.738Z,9.28
2022-11-05T04:40:32.124Z,9.30
2022-11-05T04:42:58.804Z,9.25
2022-11-05T04:45:26.781Z,9.27
2022-11-05T04:47:53.249Z,9.23
2022-11-05T04:50:19.695Z,9.21
2022-11-05T04:52:45.993Z,9.29
2022-11-05T04:55:12.321Z,9.27
2022-11-05T04:57:38.694Z,9.25
2022-11-05T05:00:06.297Z,9.15
2022-11-05T05:02:32.643Z,9.06
2022-11-05T05:04:58.923Z,9.08
2022-11-05T05:07:26.498Z,9.06
2022-11-05T05:09:54.479Z,9.11
2022-11-05T05:12:21.738Z,9.01
2022-11-05T05:14:49.100Z,8.95
2022-11-05T05:17:15.709Z,8.87
2022-11-05T05:20:01.030Z,8.90
2022-11-05T05:22:27.794Z,8.92
2022-11-05T05:24:55.539Z,8.96
2022-11-05T05:27:23.035Z,8.99
2022-11-05T05:29:49.549Z,9.02
2022-11-05T05:32:15.913Z,9.01
2022-11-05T05:34:42.209Z,8.94
2022-11-05T05:37:08.518Z,8.86
2022-11-05T05:39:34.835Z,8.83
2022-11-05T05:42:01.156Z,8.82
2022-11-05T05:44:27.487Z,8.79
2022-11-05T05:46:54.602Z,8.76
2022-11-05T05:49:21.554Z,8.72
2022-11-05T05:51:48.788Z,8.62
2022-11-05T05:54:15.211Z,8.62
2022-11-05T05:56:45.122Z,8.44
2022-11-05T05:59:11.706Z,8.46
2022-11-05T06:01:38.184Z,8.39
2022-11-05T06:04:04.808Z,8.45
2022-11-05T06:06:31.199Z,8.46
2022-11-05T06:08:57.570Z,8.38
2022-11-05T06:11:24.582Z,8.31
2022-11-05T06:13:51.096Z,8.35
2022-11-05T06:16:19.364Z,8.32
2022-11-05T06:18:45.928Z,7.82
2022-11-05T06:21:13.443Z,8.29
2022-11-05T06:23:40.837Z,8.16
2022-11-05T06:26:11.891Z,8.03
2022-11-05T06:28:38.253Z,8.14
2022-11-05T06:31:04.749Z,8.11
2022-11-05T06:33:31.096Z,8.17
2022-11-05T06:36:01.806Z,8.13
2022-11-05T06:38:29.309Z,8.09
2022-11-05T06:40:57.883Z,8.13
2022-11-05T06:43:24.179Z,8.18
2022-11-05T06:45:50.633Z,8.23
2022-11-05T06:48:16.976Z,8.19
2022-11-05T06:50:43.973Z,8.22
2022-11-05T06:53:10.677Z,8.17
2022-11-05T06:55:37.219Z,8.13
2022-11-05T06:58:04.241Z,8.14
2022-11-05T07:00:31.078Z,8.18
2022-11-05T07:03:15.879Z,8.16
2022-11-05T07:05:43.954Z,8.20
2022-11-05T07:08:10.231Z,8.27
2022-11-05T07:10:36.581Z,8.28
2022-11-05T07:13:07.825Z,8.21
2022-11-05T07:15:34.960Z,8.19
2022-11-05T07:18:01.673Z,8.21
2022-11-05T07:20:33.261Z,8.26
2022-11-05T07:23:01.597Z,8.25
2022-11-05T07:25:28.729Z,8.31
2022-11-05T07:27:55.029Z,8.36
2022-11-05T07:30:21.415Z,8.35
2022-11-05T07:32:47.720Z,8.36
2022-11-05T07:35:14.059Z,8.43
2022-11-05T07:37:47.612Z,8.47
2022-11-05T07:40:14.774Z,8.47
2022-11-05T07:43:00.634Z,8.49
2022-11-05T07:45:28.547Z,8.59
2022-11-05T07:47:56.189Z,8.63
2022-11-05T07:50:23.973Z,8.64
2022-11-05T07:52:50.482Z,8.71
2022-11-05T07:55:17.651Z,8.54
2022-11-05T07:57:44.781Z,8.83
2022-11-05T08:00:13.176Z,8.85
2022-11-05T08:02:39.980Z,8.91
2022-11-05T08:05:07.035Z,8.96
2022-11-05T08:07:33.402Z,9.03
2022-11-05T08:09:59.833Z,9.05
2022-11-05T08:12:26.220Z,9.09
2022-11-05T08:14:52.734Z,9.10
2022-11-05T08:17:19.179Z,9.16
2022-11-05T08:19:45.535Z,9.20
2022-11-05T08:22:11.825Z,9.21
2022-11-05T08:24:38.345Z,9.32
2022-11-05T08:27:04.771Z,9.38
2022-11-05T08:29:31.117Z,9.43
2022-11-05T08:31:57.432Z,9.45
2022-11-05T08:34:23.752Z,9.51
2022-11-05T08:36:50.047Z,9.53
2022-11-05T08:39:18.813Z,9.53
2022-11-05T08:41:45.908Z,9.59
2022-11-05T08:44:12.241Z,9.60
2022-11-05T08:46:41.534Z,9.56
2022-11-05T08:49:08.255Z,9.64
2022-11-05T08:51:34.635Z,9.68
2022-11-05T08:54:00.900Z,9.73
2022-11-05T08:56:27.199Z,9.73
2022-11-05T08:58:53.676Z,9.81
2022-11-05T09:01:20.403Z,9.84
2022-11-05T09:03:49.511Z,9.87
2022-11-05T09:06:15.803Z,9.92
2022-11-05T09:08:42.162Z,9.92
2022-11-05T09:11:08.476Z,9.89
2022-11-05T09:13:34.907Z,9.97
2022-11-05T09:16:01.370Z,10.00
2022-11-05T09:18:28.061Z,10.04
2022-11-05T09:20:54.513Z,10.07
2022-11-05T09:23:20.854Z,10.07
2022-11-05T09:25:47.223Z,10.12
2022-11-05T09:28:21.260Z,10.15
2022-11-05T09:30:48.998Z,10.18
2022-11-05T09:33:16.254Z,10.21
2022-11-05T09:35:42.639Z,10.22
2022-11-05T09:38:09.273Z,10.25
2022-11-05T09:40:42.975Z,10.27
2022-11-05T09:43:15.935Z,10.30
2022-11-05T09:45:43.842Z,10.35
2022-11-05T09:48:14.657Z,10.40
2022-11-05T09:50:44.086Z,10.43
2022-11-05T09:53:15.907Z,10.48
2022-11-05T09:55:43.515Z,10.52
2022-11-05T09:58:15.418Z,10.55
2022-11-05T10:00:42.145Z,10.56
2022-11-05T10:03:12.123Z,10.58
2022-11-05T10:05:40.199Z,10.62
2022-11-05T10:08:17.104Z,10.67
2022-11-05T10:10:45.179Z,10.65
2022-11-05T10:13:33.399Z,10.67
2022-11-05T10:16:06.577Z,10.72
2022-11-05T10:18:33.033Z,10.78
2022-11-05T10:20:59.402Z,10.79
2022-11-05T10:23:26.251Z,10.83
2022-11-05T10:26:01.712Z,10.87
2022-11-05T10:28:29.882Z,10.95
2022-11-05T10:31:01.161Z,10.98
2022-11-05T10:33:47.774Z,10.99
2022-11-05T10:36:18.958Z,11.04
2022-11-05T10:38:45.412Z,11.10
2022-11-05T10:41:11.795Z,10.95
2022-11-05T10:43:43.414Z,11.26
2022-11-05T10:46:15.716Z,11.32
2022-11-05T10:48:45.042Z,11.42
2022-11-05T10:51:11.702Z,11.45
2022-11-05T10:53:39.073Z,11.52
2022-11-05T10:56:25.372Z,11.53
2022-11-05T10:58:56.768Z,11.57
2022-11-05T11:01:24.321Z,11.63
2022-11-05T11:03:52.334Z,11.67
2022-11-05T11:06:21.886Z,11.69
2022-11-05T11:08:49.266Z,11.73
2022-11-05T11:11:27.072Z,11.78
2022-11-05T11:13:57.002Z,11.81
2022-11-05T11:16:24.609Z,11.81
2022-11-05T11:18:55.503Z,11.83
2022-11-05T11:21:24.828Z,11.83
2022-11-05T11:23:55.715Z,11.87
2022-11-05T11:26:23.445Z,11.88
2022-11-05T11:29:10.210Z,11.89
2022-11-05T11:31:48.145Z,11.94
2022-11-05T11:34:38.678Z,12.04
2022-11-05T11:37:11.923Z,12.22
2022-11-05T11:39:42.703Z,12.34
2022-11-05T11:42:19.216Z,12.49
2022-11-05T11:44:47.669Z,12.61
2022-11-05T11:47:15.555Z,12.74
2022-11-05T11:49:41.837Z,12.85
2022-11-05T11:52:12.990Z,12.89
2022-11-05T11:54:39.279Z,12.91
2022-11-05T11:57:20.006Z,12.91
2022-11-05T12:00:07.750Z,12.87
2022-11-05T12:02:48.272Z,12.95
2022-11-05T12:05:17.740Z,13.00
2022-11-05T12:07:44.052Z,13.01
2022-11-05T12:10:23.502Z,13.02
2022-11-05T12:12:52.836Z,13.05
2022-11-05T12:15:43.934Z,13.08
2022-11-05T12:18:15.393Z,13.10
2022-11-05T12:20:41.682Z,13.09
2022-11-05T12:23:27.075Z,13.06
2022-11-05T12:26:11.606Z,13.04
2022-11-05T12:29:04.804Z,13.01
2022-11-05T12:31:36.197Z,13.00
2022-11-05T12:34:05.477Z,13.01
2022-11-05T12:36:31.866Z,13.03
2022-11-05T12:39:16.539Z,13.04
2022-11-05T12:41:50.860Z,13.04
2022-11-05T12:44:17.233Z,13.07
2022-11-05T12:46:43.484Z,13.10
2022-11-05T12:49:30.844Z,13.08
2022-11-05T12:52:32.752Z,13.07
2022-11-05T12:54:59.182Z,13.05
2022-11-05T12:57:27.454Z,13.05
2022-11-05T12:59:56.645Z,13.06
2022-11-05T13:03:01.349Z,13.10
2022-11-05T13:05:27.647Z,13.20
2022-11-05T13:07:57.818Z,13.13
2022-11-05T13:10:34.221Z,13.15
2022-11-05T13:13:07.685Z,13.16
2022-11-05T13:15:38.688Z,13.16
2022-11-05T13:18:09.386Z,13.16
2022-11-05T13:20:38.360Z,13.16
2022-11-05T13:23:12.597Z,13.20
2022-11-05T13:25:41.782Z,13.20
2022-11-05T13:28:14.223Z,13.20
2022-11-05T13:30:43.594Z,13.25
2022-11-05T13:33:25.004Z,13.26
2022-11-05T13:36:16.435Z,13.23
2022-11-05T13:39:00.934Z,13.23
2022-11-05T13:41:27.251Z,13.24
2022-11-05T13:44:12.000Z,13.24
2022-11-05T13:46:44.287Z,13.24
2022-11-05T13:49:23.557Z,13.25
2022-11-05T13:51:55.461Z,13.21
2022-11-05T13:54:33.045Z,13.20
2022-11-05T13:57:14.751Z,13.17
2022-11-05T13:59:50.827Z,13.12
2022-11-05T14:02:19.664Z,13.09
2022-11-05T14:04:47.686Z,13.09
2022-11-05T14:07:22.230Z,13.04
2022-11-05T14:10:05.227Z,13.09
2022-11-05T14:12:34.143Z,13.08
2022-11-05T14:15:03.067Z,13.07
2022-11-05T14:17:34.476Z,13.07
2022-11-05T14:20:06.932Z,13.03
2022-11-05T14:22:33.296Z,12.98
2022-11-05T14:25:00.594Z,12.91
2022-11-05T14:27:36.127Z,12.91
2022-11-05T14:30:22.477Z,12.91
2022-11-05T14:32:50.622Z,12.84
2022-11-05T14:35:17.220Z,12.86
2022-11-05T14:37:56.925Z,12.81
2022-11-05T14:40:36.176Z,12.76
2022-11-05T14:43:04.779Z,12.76
2022-11-05T14:45:33.062Z,12.72
2022-11-05T14:48:01.100Z,12.71
2022-11-05T14:50:30.934Z,12.67
2022-11-05T14:52:59.608Z,12.67
2022-11-05T14:55:36.950Z,12.66
2022-11-05T14:58:24.950Z,12.64
2022-11-05T15:00:52.212Z,12.63
2022-11-05T15:03:27.796Z,12.58
2022-11-05T15:06:04.047Z,12.51
2022-11-05T15:08:48.731Z,12.53
2022-11-05T15:11:19.617Z,12.53
2022-11-05T15:13:51.411Z,12.53
2022-11-05T15:16:25.146Z,12.46
2022-11-05T15:18:53.068Z,12.41
2022-11-05T15:21:20.400Z,12.44
2022-11-05T15:23:48.078Z,12.41
2022-11-05T15:26:18.743Z,12.41
2022-11-05T15:28:49.359Z,12.35
2022-11-05T15:31:15.900Z,12.15
2022-11-05T15:33:43.207Z,12.34
2022-11-05T15:36:11.486Z,12.33
2022-11-05T15:38:40.841Z,12.37
2022-11-05T15:41:36.639Z,12.37
2022-11-05T15:44:03.027Z,12.31
2022-11-05T15:46:29.825Z,12.32
2022-11-05T15:49:02.095Z,12.31
2022-11-05T15:51:29.338Z,12.29
2022-11-05T15:56:49.062Z,12.28
2022-11-05T15:59:20.206Z,12.26
2022-11-05T16:01:48.463Z,12.23
2022-11-05T16:04:16.411Z,12.26
2022-11-05T16:06:43.690Z,12.23
2022-11-05T16:09:20.899Z,12.21
2022-11-05T16:11:47.281Z,12.16
2022-11-05T16:14:18.246Z,12.14
2022-11-05T16:16:45.395Z,12.14
2022-11-05T16:19:34.316Z,12.15
2022-11-05T16:22:05.479Z,12.11
2022-11-05T16:24:32.213Z,12.10
2022-11-05T16:27:02.737Z,12.09
2022-11-05T16:29:39.957Z,12.04
2022-11-05T16:32:13.406Z,11.98
2022-11-05T16:34:46.601Z,11.97
2022-11-05T16:37:14.363Z,11.97
2022-11-05T16:39:40.923Z,11.93
2022-11-05T16:42:22.726Z,11.86
2022-11-05T16:44:49.814Z,11.88
2022-11-05T16:47:16.176Z,11.85
2022-11-05T16:49:42.509Z,11.85
2022-11-05T16:52:09.270Z,11.84
2022-11-05T16:54:35.890Z,11.88
2022-11-05T16:57:04.259Z,11.89
2022-11-05T16:59:30.734Z,11.85
2022-11-05T17:01:57.570Z,11.79
2022-11-05T17:04:24.101Z,11.81
2022-11-05T17:06:50.508Z,11.80
2022-11-05T17:09:16.981Z,11.77
2022-11-05T17:11:43.369Z,11.69
2022-11-05T17:14:12.275Z,11.67
2022-11-05T17:16:39.265Z,11.63
2022-11-05T17:19:05.965Z,11.63
2022-11-05T17:21:32.508Z,11.56
2022-11-05T17:23:58.804Z,11.54
2022-11-05T17:26:25.131Z,11.54
2022-11-05T17:28:51.570Z,11.49
2022-11-05T17:31:17.919Z,11.50
2022-11-05T17:33:44.226Z,11.49
2022-11-05T17:36:12.514Z,11.49
2022-11-05T17:38:38.854Z,11.47
2022-11-05T17:41:12.530Z,11.46
2022-11-05T17:43:38.933Z,11.46
2022-11-05T17:46:09.963Z,11.46
2022-11-05T17:48:36.851Z,11.42
2022-11-05T17:51:03.477Z,11.41
2022-11-05T17:53:30.211Z,11.43
2022-11-05T17:55:56.685Z,11.46
2022-11-05T17:58:23.372Z,11.44
2022-11-05T18:00:49.847Z,11.51
2022-11-05T18:03:16.834Z,11.54
2022-11-05T18:05:43.546Z,11.45
2022-11-05T18:08:10.907Z,11.39
2022-11-05T18:10:37.761Z,11.29
2022-11-05T18:13:04.276Z,11.25
2022-11-05T18:15:30.759Z,11.21
2022-11-05T18:17:57.203Z,11.22
2022-11-05T18:20:24.134Z,11.21
2022-11-05T18:22:51.023Z,11.17
2022-11-05T18:25:17.938Z,11.19
2022-11-05T18:27:44.267Z,11.22
2022-11-05T18:30:13.948Z,11.12
2022-11-05T18:32:40.449Z,11.19
2022-11-05T18:35:08.256Z,11.19
2022-11-05T18:37:36.439Z,11.20
2022-11-05T18:40:02.923Z,11.23
2022-11-05T18:42:29.267Z,11.21
2022-11-05T18:44:55.827Z,11.23
2022-11-05T18:47:22.129Z,11.23
2022-11-05T18:49:48.436Z,11.21
2022-11-05T18:52:14.854Z,11.15
2022-11-05T18:54:41.199Z,11.18
2022-11-05T18:57:07.557Z,11.20
2022-11-05T18:59:39.293Z,11.20
2022-11-05T19:02:07.275Z,11.19
2022-11-05T19:04:34.983Z,11.18
2022-11-05T19:07:04.736Z,11.20
2022-11-05T19:09:32.162Z,11.15
2022-11-05T19:11:58.621Z,11.14
2022-11-05T19:14:24.952Z,11.16
2022-11-05T19:16:51.327Z,11.19
2022-11-05T19:19:17.688Z,11.14
2022-11-05T19:21:44.404Z,11.13
2022-11-05T19:24:16.842Z,11.12
2022-11-05T19:26:43.563Z,11.12
2022-11-05T19:29:09.915Z,11.10
2022-11-05T19:31:36.844Z,11.13
2022-11-05T19:34:03.409Z,11.14
2022-11-05T19:36:30.062Z,11.15
2022-11-05T19:38:57.599Z,11.12
2022-11-05T19:41:24.072Z,11.09
2022-11-05T19:43:50.489Z,11.11
2022-11-05T19:46:18.373Z,11.11
2022-11-05T19:48:45.477Z,11.14
2022-11-05T19:51:15.739Z,11.10
2022-11-05T19:53:42.712Z,11.10
2022-11-05T19:56:13.569Z,11.08
2022-11-05T19:58:40.116Z,11.07
2022-11-05T20:01:06.694Z,11.09
2022-11-05T20:03:33.193Z,11.11
2022-11-05T20:06:03.555Z,11.10
2022-11-05T20:08:30.034Z,11.12
2022-11-05T20:10:56.453Z,11.13
2022-11-05T20:13:22.964Z,11.16
2022-11-05T20:15:49.575Z,11.20
2022-11-05T20:18:16.494Z,11.21
2022-11-05T20:20:43.631Z,11.27
2022-11-05T20:23:10.594Z,11.24
2022-11-05T20:25:37.128Z,11.26
2022-11-05T20:28:03.618Z,11.27
2022-11-05T20:30:30.010Z,11.25
2022-11-05T20:32:56.689Z,11.22
2022-11-05T20:35:23.693Z,11.25
2022-11-05T20:37:53.913Z,11.29
2022-11-05T20:40:20.706Z,11.30
2022-11-05T20:42:47.112Z,11.28
2022-11-05T20:45:13.625Z,11.27
2022-11-05T20:47:40.105Z,11.29
2022-11-05T20:50:07.047Z,11.26
2022-11-05T20:52:33.445Z,11.29
2022-11-05T20:55:01.058Z,11.29
2022-11-05T20:57:27.644Z,11.28
2022-11-05T20:59:54.400Z,11.26
2022-11-05T21:02:20.781Z,11.28
2022-11-05T21:04:47.551Z,11.24
2022-11-05T21:07:13.936Z,11.19
2022-11-05T21:09:40.279Z,11.16
2022-11-05T21:12:12.683Z,11.12
2022-11-05T21:14:39.767Z,11.10
2022-11-05T21:17:07.396Z,11.16
2022-11-05T21:19:34.384Z,11.16
2022-11-05T21:22:01.151Z,11.13
2022-11-05T21:24:27.904Z,11.16
2022-11-05T21:26:54.410Z,11.19
2022-11-05T21:29:20.913Z,11.20
2022-11-05T21:31:47.524Z,11.18
2022-11-05T21:34:13.891Z,11.21
2022-11-05T21:36:40.655Z,11.21
2022-11-05T21:39:12.994Z,11.24
2022-11-05T21:41:39.558Z,11.27
2022-11-05T21:44:05.962Z,11.28
2022-11-05T21:46:32.391Z,11.27
2022-11-05T21:48:58.762Z,11.25
2022-11-05T21:51:44.360Z,11.26
2022-11-05T21:54:30.543Z,11.25
2022-11-05T21:57:15.760Z,11.16
2022-11-05T21:59:48.373Z,11.08
2022-11-05T22:02:19.625Z,11.06
2022-11-05T22:04:47.779Z,11.00
2022-11-05T22:07:15.586Z,10.98
2022-11-05T22:09:42.119Z,10.97
2022-11-05T22:12:09.070Z,10.92
2022-11-05T22:14:35.426Z,10.86
2022-11-05T22:17:01.731Z,10.91
2022-11-05T22:19:28.102Z,10.90
2022-11-05T22:21:54.517Z,10.90
2022-11-05T22:24:21.524Z,10.89
2022-11-05T22:26:48.275Z,10.81
2022-11-05T22:29:15.935Z,10.76
2022-11-05T22:31:42.362Z,10.75
2022-11-05T22:34:09.671Z,10.73
2022-11-05T22:36:36.274Z,10.70
2022-11-05T22:39:03.715Z,10.69
2022-11-05T22:41:30.371Z,10.68
2022-11-05T22:43:57.264Z,10.69
2022-11-05T22:46:25.146Z,10.65
2022-11-05T22:48:51.967Z,10.61
2022-11-05T22:51:20.110Z,10.63
2022-11-05T22:53:46.993Z,10.63
2022-11-05T22:56:14.493Z,10.55
2022-11-05T22:58:41.006Z,10.57
2022-11-05T23:01:08.152Z,10.53
2022-11-05T23:03:34.484Z,10.51
2022-11-05T23:06:01.965Z,10.51
2022-11-05T23:08:46.840Z,10.45
2022-11-05T23:11:35.383Z,10.49
2022-11-05T23:14:02.062Z,10.46
2022-11-05T23:16:47.182Z,10.46
2022-11-05T23:19:52.428Z,10.45
2022-11-05T23:22:38.900Z,10.41
2022-11-05T23:25:06.520Z,10.40
2022-11-05T23:27:34.638Z,10.41
2022-11-05T23:30:02.295Z,10.40
2022-11-05T23:32:30.528Z,10.39
2022-11-05T23:34:57.635Z,10.37
2022-11-05T23:37:45.542Z,10.35
2022-11-05T23:40:14.805Z,10.36
2022-11-05T23:43:00.314Z,10.38
2022-11-05T23:45:45.437Z,10.41
2022-11-05T23:48:17.687Z,10.40
2022-11-05T23:50:51.871Z,10.41
2022-11-05T23:53:18.702Z,10.15
2022-11-05T23:55:45.011Z,10.43
2022-11-05T23:58:11.745Z,10.43
